createdAt,value
2019-04-13T00:00:53.786Z,0.00
2019-04-13T00:01:53.765Z,0.00
2019-04-13T00:02:53.743Z,0.00
2019-04-13T00:03:53.718Z,0.00
2019-04-13T00:04:53.747Z,0.00
2019-04-13T00:05:53.680Z,0.00
2019-04-13T00:06:53.659Z,0.00
2019-04-13T00:07:53.643Z,0.00
2019-04-13T00:08:53.621Z,0.00
2019-04-13T00:09:53.604Z,0.00
2019-04-13T00:10:53.611Z,0.00
2019-04-13T00:11:53.564Z,0.00
2019-04-13T00:12:53.539Z,0.00
2019-04-13T00:13:53.524Z,0.00
2019-04-13T00:14:53.537Z,0.00
2019-04-13T00:15:53.483Z,0.00
2019-04-13T00:16:53.491Z,0.00
2019-04-13T00:17:53.451Z,0.00
2019-04-13T00:18:53.429Z,0.00
2019-04-13T00:19:53.412Z,0.00
2019-04-13T00:20:53.419Z,0.00
2019-04-13T00:21:53.371Z,0.00
2019-04-13T00:22:53.355Z,0.00
2019-04-13T00:23:53.340Z,0.00
2019-04-13T00:24:53.313Z,0.00
2019-04-13T00:25:53.338Z,0.00
2019-04-13T00:26:53.271Z,0.00
2019-04-13T00:27:53.247Z,0.00
2019-04-13T00:28:53.234Z,0.00
2019-04-13T00:29:53.210Z,0.00
2019-04-13T00:30:53.217Z,0.00
2019-04-13T00:31:53.222Z,0.00
2019-04-13T00:32:53.152Z,0.00
2019-04-13T00:33:53.127Z,0.00
2019-04-13T00:34:53.111Z,0.00
2019-04-13T00:35:53.087Z,0.00
2019-04-13T00:36:53.068Z,0.00
2019-04-13T00:37:53.060Z,0.00
2019-04-13T00:38:53.031Z,0.00
2019-04-13T00:39:53.055Z,0.00
2019-04-13T00:40:52.997Z,0.00
2019-04-13T00:41:53.000Z,0.00
2019-04-13T00:42:52.987Z,0.00
2019-04-13T00:43:52.929Z,0.00
2019-04-13T00:44:52.908Z,0.00
2019-04-13T00:45:52.890Z,0.00
2019-04-13T00:46:52.908Z,0.00
2019-04-13T00:47:52.854Z,0.00
2019-04-13T00:48:52.853Z,0.00
2019-04-13T00:49:52.809Z,0.00
2019-04-13T00:50:52.798Z,0.00
2019-04-13T00:51:52.772Z,0.00
2019-04-13T00:52:52.756Z,0.00
2019-04-13T00:53:52.786Z,0.00
2019-04-13T00:54:52.720Z,0.00
2019-04-13T00:55:52.690Z,0.00
2019-04-13T00:56:52.676Z,0.00
2019-04-13T00:57:52.651Z,0.00
2019-04-13T00:58:52.630Z,0.00
2019-04-13T00:59:52.613Z,0.00
2019-04-13T01:00:52.595Z,0.00
2019-04-13T01:01:52.568Z,0.00
2019-04-13T01:02:52.557Z,0.00
2019-04-13T01:03:52.593Z,0.00
2019-04-13T01:04:53.643Z,0.00
2019-04-13T01:05:52.506Z,0.00
2019-04-13T01:06:52.478Z,0.00
2019-04-13T01:07:52.461Z,0.00
2019-04-13T01:08:52.431Z,0.00
2019-04-13T01:09:52.417Z,0.00
2019-04-13T01:10:52.416Z,0.00
2019-04-13T01:11:52.380Z,0.00
2019-04-13T01:12:52.354Z,0.00
2019-04-13T01:13:52.336Z,0.00
2019-04-13T01:14:52.320Z,0.00
2019-04-13T01:15:52.295Z,0.00
2019-04-13T01:16:52.345Z,0.00
2019-04-13T01:17:52.261Z,0.00
2019-04-13T01:18:52.240Z,0.00
2019-04-13T01:19:52.218Z,0.00
2019-04-13T01:20:52.201Z,0.00
2019-04-13T01:21:52.174Z,0.00
2019-04-13T01:22:52.172Z,0.00
2019-04-13T01:23:52.142Z,0.00
2019-04-13T01:24:52.119Z,0.00
2019-04-13T01:25:52.098Z,0.00
2019-04-13T01:26:52.082Z,0.00
2019-04-13T01:27:52.058Z,0.00
2019-04-13T01:28:52.037Z,0.00
2019-04-13T01:29:52.020Z,0.00
2019-04-13T01:30:52.003Z,0.00
2019-04-13T01:31:51.983Z,0.00
2019-04-13T01:32:51.987Z,0.00
2019-04-13T01:33:51.933Z,0.00
2019-04-13T01:34:51.918Z,0.00
2019-04-13T01:35:51.897Z,0.00
2019-04-13T01:36:51.874Z,0.00
2019-04-13T01:37:51.901Z,0.00
2019-04-13T01:38:51.843Z,0.00
2019-04-13T01:39:51.817Z,0.00
2019-04-13T01:40:51.795Z,0.00
2019-04-13T01:41:51.770Z,0.00
2019-04-13T01:42:51.761Z,0.00
2019-04-13T01:43:51.768Z,0.00
2019-04-13T01:44:51.726Z,0.00
2019-04-13T01:45:51.700Z,0.00
2019-04-13T01:46:51.682Z,0.00
2019-04-13T01:47:51.658Z,0.00
2019-04-13T01:48:51.635Z,0.00
2019-04-13T01:49:51.629Z,0.00
2019-04-13T01:50:51.601Z,0.00
2019-04-13T01:51:51.577Z,0.00
2019-04-13T01:52:51.560Z,0.00
2019-04-13T01:53:51.542Z,0.00
2019-04-13T01:54:51.519Z,0.00
2019-04-13T01:55:51.555Z,0.00
2019-04-13T01:56:51.479Z,0.00
2019-04-13T01:57:51.460Z,0.00
2019-04-13T01:58:51.438Z,0.00
2019-04-13T01:59:51.415Z,0.00
2019-04-13T02:00:51.398Z,0.00
2019-04-13T02:01:51.407Z,0.00
2019-04-13T02:02:51.354Z,0.00
2019-04-13T02:03:51.338Z,0.00
2019-04-13T02:04:51.321Z,0.00
2019-04-13T02:05:51.352Z,0.00
2019-04-13T02:06:51.278Z,0.00
2019-04-13T02:07:51.260Z,0.00
2019-04-13T02:08:51.238Z,0.00
2019-04-13T02:09:51.218Z,0.00
2019-04-13T02:10:51.203Z,0.00
2019-04-13T02:11:51.234Z,0.00
2019-04-13T02:12:51.160Z,0.00
2019-04-13T02:13:51.143Z,0.00
2019-04-13T02:14:51.115Z,0.00
2019-04-13T02:15:51.104Z,0.00
2019-04-13T02:16:51.136Z,0.00
2019-04-13T02:17:51.089Z,0.00
2019-04-13T02:18:51.038Z,0.00
2019-04-13T02:19:51.022Z,0.00
2019-04-13T02:20:50.993Z,0.00
2019-04-13T02:21:50.981Z,0.00
2019-04-13T02:22:50.978Z,0.00
2019-04-13T02:23:50.948Z,0.00
2019-04-13T02:24:50.916Z,0.00
2019-04-13T02:25:50.897Z,0.00
2019-04-13T02:26:50.884Z,0.00
2019-04-13T02:27:50.891Z,0.00
2019-04-13T02:28:50.844Z,0.00
2019-04-13T02:29:50.814Z,0.00
2019-04-13T02:30:50.800Z,0.00
2019-04-13T02:31:50.813Z,0.00
2019-04-13T02:32:50.754Z,0.00
2019-04-13T02:33:50.775Z,0.00
2019-04-13T02:34:50.719Z,0.00
2019-04-13T02:35:50.735Z,0.00
2019-04-13T02:36:50.681Z,0.00
2019-04-13T02:37:50.657Z,0.00
2019-04-13T02:38:50.639Z,0.00
2019-04-13T02:39:50.654Z,0.00
2019-04-13T02:40:50.598Z,0.00
2019-04-13T02:41:50.580Z,0.00
2019-04-13T02:42:50.555Z,0.00
2019-04-13T02:43:50.535Z,0.00
2019-04-13T02:44:50.542Z,0.00
2019-04-13T02:45:50.494Z,0.00
2019-04-13T02:46:50.487Z,0.00
2019-04-13T02:47:50.455Z,0.00
2019-04-13T02:48:50.441Z,0.00
2019-04-13T02:49:50.471Z,0.00
2019-04-13T02:50:50.403Z,0.00
2019-04-13T02:51:50.374Z,0.00
2019-04-13T02:52:50.357Z,0.00
2019-04-13T02:53:50.340Z,0.00
2019-04-13T02:54:50.314Z,0.00
2019-04-13T02:55:50.305Z,0.00
2019-04-13T02:56:50.306Z,0.00
2019-04-13T02:57:50.290Z,0.00
2019-04-13T02:58:50.250Z,0.00
2019-04-13T02:59:50.236Z,0.00
2019-04-13T03:00:50.196Z,0.00
2019-04-13T03:01:50.179Z,0.00
2019-04-13T03:02:50.154Z,0.00
2019-04-13T03:03:50.144Z,0.00
2019-04-13T03:04:50.114Z,0.00
2019-04-13T03:05:50.117Z,0.00
2019-04-13T03:06:50.080Z,0.00
2019-04-13T03:07:50.087Z,0.00
2019-04-13T03:08:50.039Z,0.00
2019-04-13T03:09:50.010Z,0.00
2019-04-13T03:10:49.990Z,0.00
2019-04-13T03:11:49.987Z,0.00
2019-04-13T03:12:49.991Z,0.00
2019-04-13T03:13:49.934Z,0.00
2019-04-13T03:14:49.920Z,0.00
2019-04-13T03:15:49.891Z,0.00
2019-04-13T03:16:49.880Z,0.00
2019-04-13T03:17:49.907Z,0.00
2019-04-13T03:18:49.837Z,0.00
2019-04-13T03:19:49.821Z,0.00
2019-04-13T03:20:49.797Z,0.00
2019-04-13T03:21:49.769Z,0.00
2019-04-13T03:22:49.748Z,0.00
2019-04-13T03:23:49.738Z,0.00
2019-04-13T03:24:49.718Z,0.00
2019-04-13T03:25:49.692Z,0.00
2019-04-13T03:26:49.680Z,0.00
2019-04-13T03:27:49.657Z,0.00
2019-04-13T03:28:49.684Z,0.00
2019-04-13T03:29:49.610Z,0.00
2019-04-13T03:30:50.106Z,0.00
2019-04-13T03:31:49.579Z,0.00
2019-04-13T03:32:49.553Z,0.00
2019-04-13T03:33:49.534Z,0.00
2019-04-13T03:34:49.535Z,0.00
2019-04-13T03:35:58.667Z,0.00
2019-04-13T03:36:49.492Z,0.00
2019-04-13T03:37:49.453Z,0.00
2019-04-13T03:38:49.428Z,0.00
2019-04-13T03:39:49.437Z,0.00
2019-04-13T03:40:49.390Z,0.00
2019-04-13T03:41:49.364Z,0.00
2019-04-13T03:42:49.343Z,0.00
2019-04-13T03:43:49.393Z,0.00
2019-04-13T03:44:49.314Z,0.00
2019-04-13T03:45:49.290Z,0.00
2019-04-13T03:46:49.268Z,0.00
2019-04-13T03:47:49.249Z,0.00
2019-04-13T03:48:49.221Z,0.00
2019-04-13T03:49:49.237Z,0.00
2019-04-13T03:50:49.193Z,0.00
2019-04-13T03:51:49.171Z,0.00
2019-04-13T03:52:49.148Z,0.00
2019-04-13T03:53:49.125Z,0.00
2019-04-13T03:54:49.135Z,0.00
2019-04-13T03:55:49.089Z,0.00
2019-04-13T03:56:49.061Z,0.00
2019-04-13T03:57:49.042Z,0.00
2019-04-13T03:58:49.035Z,0.00
2019-04-13T03:59:49.036Z,0.00
2019-04-13T04:00:48.989Z,0.00
2019-04-13T04:01:48.964Z,0.00
2019-04-13T04:02:48.942Z,0.00
2019-04-13T04:03:48.917Z,0.00
2019-04-13T04:04:48.930Z,0.00
2019-04-13T04:05:48.908Z,0.00
2019-04-13T04:06:48.858Z,0.00
2019-04-13T04:07:48.843Z,0.00
2019-04-13T04:08:48.820Z,0.00
2019-04-13T04:09:48.797Z,0.00
2019-04-13T04:10:48.781Z,4.00
2019-04-13T04:11:48.762Z,0.00
2019-04-13T04:12:48.744Z,0.00
2019-04-13T04:13:48.728Z,4.00
2019-04-13T04:14:48.702Z,4.00
2019-04-13T04:15:48.708Z,0.00
2019-04-13T04:16:48.663Z,4.00
2019-04-13T04:17:48.666Z,4.00
2019-04-13T04:18:48.624Z,8.00
2019-04-13T04:19:48.605Z,8.00
2019-04-13T04:20:48.629Z,4.00
2019-04-13T04:21:48.584Z,8.00
2019-04-13T04:22:48.543Z,8.00
2019-04-13T04:23:48.526Z,8.00
2019-04-13T04:24:48.497Z,12.00
2019-04-13T04:25:48.471Z,12.00
2019-04-13T04:26:48.516Z,16.00
2019-04-13T04:27:48.439Z,16.00
2019-04-13T04:28:48.417Z,20.00
2019-04-13T04:29:48.399Z,24.00
2019-04-13T04:30:48.382Z,24.00
2019-04-13T04:31:48.359Z,28.00
2019-04-13T04:32:48.404Z,32.00
2019-04-13T04:33:48.321Z,36.00
2019-04-13T04:34:48.301Z,36.00
2019-04-13T04:35:48.279Z,36.00
2019-04-13T04:36:48.259Z,44.00
2019-04-13T04:37:48.240Z,48.00
2019-04-13T04:38:48.219Z,56.00
2019-04-13T04:39:48.200Z,68.00
2019-04-13T04:40:48.177Z,68.00
2019-04-13T04:41:48.160Z,72.00
2019-04-13T04:42:48.160Z,80.00
2019-04-13T04:43:48.115Z,84.00
2019-04-13T04:44:48.094Z,92.00
2019-04-13T04:45:48.076Z,104.00
2019-04-13T04:46:48.052Z,128.00
2019-04-13T04:47:48.067Z,144.00
2019-04-13T04:48:48.010Z,144.00
2019-04-13T04:49:47.993Z,140.00
2019-04-13T04:50:47.975Z,144.00
2019-04-13T04:51:47.959Z,132.00
2019-04-13T04:52:47.956Z,128.00
2019-04-13T04:53:47.909Z,140.00
2019-04-13T04:54:47.890Z,152.00
2019-04-13T04:55:47.873Z,156.00
2019-04-13T04:56:47.969Z,164.00
2019-04-13T04:57:47.856Z,172.00
2019-04-13T04:58:47.850Z,172.00
2019-04-13T04:59:47.829Z,184.00
2019-04-13T05:00:47.785Z,192.00
2019-04-13T05:01:47.763Z,192.00
2019-04-13T05:02:47.744Z,204.00
2019-04-13T05:03:47.712Z,200.00
2019-04-13T05:04:47.689Z,220.00
2019-04-13T05:05:47.675Z,244.00
2019-04-13T05:06:47.654Z,272.00
2019-04-13T05:07:47.637Z,304.00
2019-04-13T05:08:47.606Z,328.00
2019-04-13T05:09:47.588Z,336.00
2019-04-13T05:10:47.574Z,360.00
2019-04-13T05:11:47.561Z,372.00
2019-04-13T05:12:47.525Z,416.00
2019-04-13T05:13:47.522Z,448.00
2019-04-13T05:14:47.495Z,412.00
2019-04-13T05:15:47.477Z,408.00
2019-04-13T05:16:47.452Z,416.00
2019-04-13T05:17:47.432Z,456.00
2019-04-13T05:18:47.407Z,488.00
2019-04-13T05:19:47.424Z,552.00
2019-04-13T05:20:47.368Z,560.00
2019-04-13T05:21:47.348Z,564.00
2019-04-13T05:22:47.325Z,556.00
2019-04-13T05:23:47.316Z,620.00
2019-04-13T05:24:47.292Z,616.00
2019-04-13T05:25:47.271Z,704.00
2019-04-13T05:26:47.307Z,676.00
2019-04-13T05:27:47.238Z,692.00
2019-04-13T05:28:47.215Z,772.00
2019-04-13T05:29:47.195Z,856.00
2019-04-13T05:30:47.172Z,832.00
2019-04-13T05:31:47.154Z,760.00
2019-04-13T05:32:47.157Z,848.00
2019-04-13T05:33:47.118Z,872.00
2019-04-13T05:34:47.086Z,956.00
2019-04-13T05:35:47.066Z,1104.00
2019-04-13T05:36:48.059Z,1268.00
2019-04-13T05:37:47.026Z,1272.00
2019-04-13T05:38:47.012Z,1128.00
2019-04-13T05:39:46.992Z,1144.00
2019-04-13T05:40:46.970Z,1252.00
2019-04-13T05:41:46.943Z,1244.00
2019-04-13T05:42:46.956Z,1284.00
2019-04-13T05:43:46.921Z,1412.00
2019-04-13T05:44:46.888Z,1476.00
2019-04-13T05:45:46.870Z,1480.00
2019-04-13T05:46:46.870Z,1504.00
2019-04-13T05:47:46.834Z,1376.00
2019-04-13T05:48:46.804Z,1408.00
2019-04-13T05:49:46.783Z,1460.00
2019-04-13T05:50:46.768Z,1536.00
2019-04-13T05:51:46.759Z,1472.00
2019-04-13T05:52:46.762Z,1368.00
2019-04-13T05:53:46.708Z,1320.00
2019-04-13T05:54:46.687Z,1404.00
2019-04-13T05:55:46.668Z,1508.00
2019-04-13T05:56:46.646Z,1604.00
2019-04-13T05:57:46.661Z,1608.00
2019-04-13T05:58:46.636Z,1776.00
2019-04-13T05:59:46.586Z,1996.00
2019-04-13T06:00:46.572Z,2076.00
2019-04-13T06:01:46.542Z,2040.00
2019-04-13T06:02:46.524Z,2060.00
2019-04-13T06:03:46.532Z,2080.00
2019-04-13T06:04:46.488Z,2124.00
2019-04-13T06:05:46.462Z,2164.00
2019-04-13T06:06:46.448Z,2152.00
2019-04-13T06:07:46.424Z,2216.00
2019-04-13T06:08:46.441Z,2136.00
2019-04-13T06:09:46.386Z,2428.00
2019-04-13T06:10:47.802Z,2536.00
2019-04-13T06:11:46.338Z,2676.00
2019-04-13T06:12:46.345Z,3068.00
2019-04-13T06:13:46.317Z,3180.00
2019-04-13T06:14:46.287Z,3376.00
2019-04-13T06:15:46.275Z,2916.00
2019-04-13T06:16:46.251Z,2964.00
2019-04-13T06:17:46.225Z,2952.00
2019-04-13T06:18:46.205Z,3276.00
2019-04-13T06:19:46.193Z,3360.00
2019-04-13T06:20:46.191Z,3564.00
2019-04-13T06:21:46.150Z,3700.00
2019-04-13T06:22:47.086Z,3652.00
2019-04-13T06:23:49.835Z,3680.00
2019-04-13T06:24:46.105Z,3868.00
2019-04-13T06:25:46.069Z,3944.00
2019-04-13T06:26:46.055Z,3788.00
2019-04-13T06:27:46.029Z,4048.00
2019-04-13T06:28:48.382Z,4056.00
2019-04-13T06:29:45.989Z,4044.00
2019-04-13T06:30:46.224Z,4244.00
2019-04-13T06:31:45.958Z,4556.00
2019-04-13T06:32:45.933Z,4668.00
2019-04-13T06:33:45.910Z,4544.00
2019-04-13T06:34:45.894Z,4380.00
2019-04-13T06:35:45.933Z,4584.00
2019-04-13T06:36:45.850Z,4396.00
2019-04-13T06:37:48.217Z,4212.00
2019-04-13T06:38:45.819Z,4176.00
2019-04-13T06:39:45.791Z,4280.00
2019-04-13T06:40:45.768Z,4048.00
2019-04-13T06:41:48.151Z,3532.00
2019-04-13T06:42:49.870Z,3656.00
2019-04-13T06:43:45.710Z,3872.00
2019-04-13T06:44:45.694Z,3784.00
2019-04-13T06:45:48.099Z,3660.00
2019-04-13T06:46:45.690Z,3464.00
2019-04-13T06:47:45.638Z,2960.00
2019-04-13T06:48:45.621Z,2728.00
2019-04-13T06:49:45.593Z,2348.00
2019-04-13T06:50:45.598Z,2132.00
2019-04-13T06:51:45.580Z,2148.00
2019-04-13T06:52:45.542Z,2112.00
2019-04-13T06:53:45.527Z,2240.00
2019-04-13T06:54:45.500Z,2292.00
2019-04-13T06:55:45.488Z,2140.00
2019-04-13T06:56:45.495Z,2496.00
2019-04-13T06:57:45.441Z,2228.00
2019-04-13T06:58:45.434Z,2512.00
2019-04-13T06:59:45.405Z,2700.00
2019-04-13T07:00:47.741Z,2528.00
2019-04-13T07:01:45.397Z,2500.00
2019-04-13T07:02:45.349Z,2684.00
2019-04-13T07:03:45.331Z,2708.00
2019-04-13T07:04:45.303Z,2616.00
2019-04-13T07:05:45.290Z,2684.00
2019-04-13T07:06:48.085Z,2276.00
2019-04-13T07:07:46.345Z,2352.00
2019-04-13T07:08:45.256Z,2296.00
2019-04-13T07:09:45.206Z,2468.00
2019-04-13T07:10:49.778Z,2424.00
2019-04-13T07:11:45.201Z,2488.00
2019-04-13T07:12:45.156Z,2840.00
2019-04-13T07:13:45.191Z,3088.00
2019-04-13T07:14:45.114Z,3844.00
2019-04-13T07:15:46.448Z,3804.00
2019-04-13T07:16:45.068Z,3892.00
2019-04-13T07:17:45.051Z,4400.00
2019-04-13T07:18:45.032Z,3612.00
2019-04-13T07:19:45.025Z,3332.00
2019-04-13T07:20:48.084Z,3416.00
2019-04-13T07:21:44.986Z,3104.00
2019-04-13T07:22:44.958Z,3424.00
2019-04-13T07:23:44.934Z,3260.00
2019-04-13T07:24:44.948Z,3752.00
2019-04-13T07:25:44.946Z,4592.00
2019-04-13T07:26:44.881Z,4936.00
2019-04-13T07:27:44.863Z,4136.00
2019-04-13T07:28:47.625Z,3444.00
2019-04-13T07:29:45.786Z,3028.00
2019-04-13T07:30:44.804Z,2768.00
2019-04-13T07:31:44.782Z,2872.00
2019-04-13T07:32:44.774Z,2848.00
2019-04-13T07:33:44.738Z,2800.00
2019-04-13T07:34:44.752Z,3388.00
2019-04-13T07:35:44.709Z,3564.00
2019-04-13T07:36:44.680Z,3492.00
2019-04-13T07:37:45.363Z,3184.00
2019-04-13T07:38:47.568Z,3092.00
2019-04-13T07:39:48.078Z,3416.00
2019-04-13T07:40:44.603Z,4136.00
2019-04-13T07:41:44.581Z,4388.00
2019-04-13T07:42:44.569Z,4452.00
2019-04-13T07:43:45.955Z,3956.00
2019-04-13T07:44:44.590Z,3636.00
2019-04-13T07:45:44.513Z,3720.00
2019-04-13T07:46:44.495Z,4032.00
2019-04-13T07:47:45.585Z,3408.00
2019-04-13T07:48:44.450Z,3116.00
2019-04-13T07:49:44.477Z,3448.00
2019-04-13T07:50:44.574Z,3152.00
2019-04-13T07:51:44.395Z,3732.00
2019-04-13T07:52:44.372Z,3932.00
2019-04-13T07:53:44.355Z,3756.00
2019-04-13T07:54:45.400Z,4556.00
2019-04-13T07:55:44.391Z,6412.00
2019-04-13T07:56:44.309Z,6676.00
2019-04-13T07:57:44.293Z,7048.00
2019-04-13T07:58:47.135Z,6120.00
2019-04-13T07:59:44.242Z,6888.00
2019-04-13T08:00:45.819Z,8576.00
2019-04-13T08:01:56.217Z,6100.00
2019-04-13T08:02:44.410Z,7204.00
2019-04-13T08:03:44.164Z,6880.00
2019-04-13T08:04:44.157Z,6776.00
2019-04-13T08:05:44.117Z,6460.00
2019-04-13T08:06:44.124Z,5972.00
2019-04-13T08:07:49.997Z,5480.00
2019-04-13T08:08:46.044Z,5628.00
2019-04-13T08:09:44.045Z,5660.00
2019-04-13T08:10:44.031Z,6208.00
2019-04-13T08:11:44.070Z,7252.00
2019-04-13T08:12:44.011Z,8596.00
2019-04-13T08:13:43.977Z,8828.00
2019-04-13T08:14:43.955Z,7720.00
2019-04-13T08:15:43.933Z,6056.00
2019-04-13T08:16:43.910Z,5240.00
2019-04-13T08:17:43.903Z,5060.00
2019-04-13T08:18:43.876Z,4208.00
2019-04-13T08:19:43.856Z,4076.00
2019-04-13T08:20:43.832Z,3612.00
2019-04-13T08:21:43.820Z,2904.00
2019-04-13T08:22:43.815Z,2952.00
2019-04-13T08:23:43.827Z,3176.00
2019-04-13T08:24:43.769Z,3268.00
2019-04-13T08:25:43.751Z,3000.00
2019-04-13T08:26:43.722Z,2636.00
2019-04-13T08:27:43.712Z,2680.00
2019-04-13T08:28:43.693Z,2664.00
2019-04-13T08:29:44.818Z,2420.00
2019-04-13T08:30:43.721Z,2612.00
2019-04-13T08:31:43.636Z,2384.00
2019-04-13T08:32:43.611Z,2392.00
2019-04-13T08:33:43.603Z,2620.00
2019-04-13T08:34:43.603Z,3188.00
2019-04-13T08:35:43.566Z,4192.00
2019-04-13T08:36:43.538Z,5096.00
2019-04-13T08:37:52.889Z,4556.00
2019-04-13T08:38:57.843Z,4004.00
2019-04-13T08:39:43.527Z,3884.00
2019-04-13T08:41:09.816Z,3812.00
2019-04-13T08:41:43.439Z,5704.00
2019-04-13T08:42:43.423Z,6672.00
2019-04-13T08:43:43.406Z,6632.00
2019-04-13T08:44:43.378Z,7728.00
2019-04-13T08:45:44.162Z,7004.00
2019-04-13T08:46:43.370Z,6968.00
2019-04-13T08:47:43.341Z,10140.00
2019-04-13T08:48:43.311Z,15232.00
2019-04-13T08:49:43.283Z,27840.00
2019-04-13T08:50:43.323Z,20224.00
2019-04-13T08:51:43.252Z,29856.00
2019-04-13T08:52:43.233Z,13640.00
2019-04-13T08:53:43.218Z,10980.00
2019-04-13T08:54:43.196Z,9844.00
2019-04-13T08:55:43.182Z,11696.00
2019-04-13T08:56:43.185Z,8884.00
2019-04-13T08:57:43.144Z,6672.00
2019-04-13T08:58:44.483Z,6704.00
2019-04-13T08:59:43.102Z,6864.00
2019-04-13T09:00:43.239Z,6492.00
2019-04-13T09:01:43.091Z,5008.00
2019-04-13T09:02:43.053Z,4408.00
2019-04-13T09:03:43.064Z,5368.00
2019-04-13T09:04:43.009Z,8236.00
2019-04-13T09:05:42.994Z,7200.00
2019-04-13T09:06:42.981Z,9872.00
2019-04-13T09:07:42.968Z,11148.00
2019-04-13T09:08:42.938Z,10508.00
2019-04-13T09:09:45.837Z,10296.00
2019-04-13T09:10:43.734Z,7504.00
2019-04-13T09:11:42.925Z,9516.00
2019-04-13T09:12:43.135Z,9268.00
2019-04-13T09:13:44.097Z,8020.00
2019-04-13T09:14:42.824Z,8496.00
2019-04-13T09:15:46.458Z,9256.00
2019-04-13T09:16:42.814Z,9804.00
2019-04-13T09:17:42.871Z,8656.00
2019-04-13T09:18:42.765Z,8152.00
2019-04-13T09:19:44.628Z,9292.00
2019-04-13T09:20:42.717Z,11900.00
2019-04-13T09:21:47.775Z,12176.00
2019-04-13T09:22:43.062Z,10952.00
2019-04-13T09:23:46.136Z,11344.00
2019-04-13T09:24:42.670Z,13060.00
2019-04-13T09:25:42.619Z,13372.00
2019-04-13T09:26:42.695Z,12536.00
2019-04-13T09:27:45.385Z,13524.00
2019-04-13T09:28:43.476Z,15776.00
2019-04-13T09:29:44.506Z,13960.00
2019-04-13T09:30:42.535Z,14708.00
2019-04-13T09:31:42.521Z,12780.00
2019-04-13T09:32:42.501Z,10368.00
2019-04-13T09:33:44.193Z,9484.00
2019-04-13T09:34:42.468Z,8580.00
2019-04-13T09:35:42.440Z,7612.00
2019-04-13T09:36:42.425Z,9708.00
2019-04-13T09:37:42.402Z,25888.00
2019-04-13T09:38:46.275Z,20320.00
2019-04-13T09:39:42.379Z,18336.00
2019-04-13T09:40:42.347Z,9804.00
2019-04-13T09:41:42.336Z,11752.00
2019-04-13T09:42:42.371Z,32896.00
2019-04-13T09:43:42.295Z,14276.00
2019-04-13T09:44:42.304Z,14644.00
2019-04-13T09:45:42.267Z,19008.00
2019-04-13T09:46:42.248Z,19072.00
2019-04-13T09:47:42.837Z,15008.00
2019-04-13T09:48:42.231Z,12624.00
2019-04-13T09:49:42.250Z,13084.00
2019-04-13T09:50:42.177Z,13724.00
2019-04-13T09:51:42.160Z,10024.00
2019-04-13T09:52:44.093Z,9492.00
2019-04-13T09:53:42.154Z,7736.00
2019-04-13T09:54:43.343Z,6728.00
2019-04-13T09:55:42.086Z,6032.00
2019-04-13T09:56:42.068Z,7692.00
2019-04-13T09:57:42.057Z,7096.00
2019-04-13T09:58:42.058Z,14016.00
2019-04-13T09:59:42.039Z,38432.00
2019-04-13T10:00:41.997Z,49824.00
2019-04-13T10:01:45.160Z,52608.00
2019-04-13T10:02:41.999Z,22912.00
2019-04-13T10:03:41.952Z,33312.00
2019-04-13T10:04:41.961Z,19968.00
2019-04-13T10:05:41.920Z,14768.00
2019-04-13T10:06:41.910Z,12976.00
2019-04-13T10:07:45.559Z,11580.00
2019-04-13T10:08:45.983Z,11120.00
2019-04-13T10:09:42.341Z,11112.00
2019-04-13T10:10:44.354Z,10804.00
2019-04-13T10:11:41.819Z,10600.00
2019-04-13T10:12:41.798Z,10172.00
2019-04-13T10:13:41.801Z,10108.00
2019-04-13T10:14:41.764Z,10840.00
2019-04-13T10:15:41.752Z,12112.00
2019-04-13T10:16:41.724Z,12300.00
2019-04-13T10:17:41.709Z,11504.00
2019-04-13T10:18:41.757Z,10592.00
2019-04-13T10:19:41.683Z,10276.00
2019-04-13T10:20:42.315Z,11040.00
2019-04-13T10:21:41.647Z,12532.00
2019-04-13T10:22:41.653Z,27264.00
2019-04-13T10:23:41.606Z,14432.00
2019-04-13T10:24:41.621Z,13576.00
2019-04-13T10:25:41.576Z,12788.00
2019-04-13T10:26:41.739Z,12276.00
2019-04-13T10:27:42.206Z,11144.00
2019-04-13T10:28:41.610Z,12484.00
2019-04-13T10:29:41.537Z,13528.00
2019-04-13T10:30:41.479Z,14496.00
2019-04-13T10:31:41.467Z,12492.00
2019-04-13T10:32:41.463Z,9552.00
2019-04-13T10:33:41.431Z,7840.00
2019-04-13T10:34:41.482Z,7568.00
2019-04-13T10:35:41.395Z,7436.00
2019-04-13T10:36:41.476Z,8220.00
2019-04-13T10:37:41.361Z,10580.00
2019-04-13T10:38:41.345Z,14256.00
2019-04-13T10:39:41.332Z,18912.00
2019-04-13T10:40:42.826Z,28128.00
2019-04-13T10:41:41.297Z,27552.00
2019-04-13T10:42:41.277Z,35008.00
2019-04-13T10:43:41.258Z,32960.00
2019-04-13T10:44:42.095Z,36768.00
2019-04-13T10:45:41.230Z,19136.00
2019-04-13T10:46:41.217Z,13644.00
2019-04-13T10:47:41.195Z,10476.00
2019-04-13T10:48:41.179Z,9740.00
2019-04-13T10:49:41.161Z,12056.00
2019-04-13T10:50:41.135Z,18048.00
2019-04-13T10:51:41.148Z,15168.00
2019-04-13T10:52:41.127Z,12264.00
2019-04-13T10:53:41.106Z,13608.00
2019-04-13T10:54:41.075Z,21856.00
2019-04-13T10:55:41.060Z,29408.00
2019-04-13T10:56:41.085Z,23680.00
2019-04-13T10:57:41.165Z,17728.00
2019-04-13T10:58:41.005Z,13364.00
2019-04-13T10:59:41.087Z,16128.00
2019-04-13T11:00:40.970Z,21056.00
2019-04-13T11:01:41.016Z,14492.00
2019-04-13T11:02:40.939Z,11696.00
2019-04-13T11:03:40.922Z,8288.00
2019-04-13T11:04:40.901Z,6672.00
2019-04-13T11:05:40.895Z,7492.00
2019-04-13T11:06:40.880Z,8360.00
2019-04-13T11:07:40.891Z,9404.00
2019-04-13T11:08:40.848Z,10260.00
2019-04-13T11:09:40.831Z,9704.00
2019-04-13T11:10:40.808Z,7972.00
2019-04-13T11:11:40.831Z,6856.00
2019-04-13T11:12:42.896Z,6896.00
2019-04-13T11:13:40.758Z,7716.00
2019-04-13T11:14:40.742Z,8404.00
2019-04-13T11:15:41.880Z,8372.00
2019-04-13T11:16:40.718Z,7696.00
2019-04-13T11:17:40.716Z,6172.00
2019-04-13T11:18:40.672Z,5260.00
2019-04-13T11:19:40.689Z,4716.00
2019-04-13T11:20:45.126Z,4036.00
2019-04-13T11:21:40.628Z,3712.00
2019-04-13T11:22:40.632Z,3564.00
2019-04-13T11:23:45.823Z,3248.00
2019-04-13T11:24:40.858Z,3332.00
2019-04-13T11:25:40.557Z,3516.00
2019-04-13T11:26:40.541Z,3760.00
2019-04-13T11:27:40.554Z,4712.00
2019-04-13T11:28:40.502Z,7156.00
2019-04-13T11:29:40.488Z,11152.00
2019-04-13T11:30:40.488Z,14204.00
2019-04-13T11:31:40.446Z,16512.00
2019-04-13T11:32:40.439Z,23232.00
2019-04-13T11:33:42.641Z,26496.00
2019-04-13T11:34:40.471Z,28800.00
2019-04-13T11:35:40.382Z,29120.00
2019-04-13T11:36:40.362Z,28352.00
2019-04-13T11:37:40.376Z,26944.00
2019-04-13T11:38:40.324Z,22976.00
2019-04-13T11:39:41.384Z,26880.00
2019-04-13T11:40:40.330Z,21408.00
2019-04-13T11:41:40.341Z,28160.00
2019-04-13T11:42:40.259Z,24736.00
2019-04-13T11:43:40.245Z,17920.00
2019-04-13T11:44:40.235Z,21312.00
2019-04-13T11:45:40.213Z,24992.00
2019-04-13T11:46:40.198Z,14924.00
2019-04-13T11:47:40.193Z,14956.00
2019-04-13T11:48:40.172Z,18048.00
2019-04-13T11:49:40.207Z,27424.00
2019-04-13T11:50:40.412Z,15232.00
2019-04-13T11:51:40.120Z,9908.00
2019-04-13T11:52:40.110Z,7924.00
2019-04-13T11:53:40.094Z,6780.00
2019-04-13T11:54:40.071Z,5732.00
2019-04-13T11:55:40.070Z,4800.00
2019-04-13T11:56:40.044Z,3844.00
2019-04-13T11:57:40.023Z,3132.00
2019-04-13T11:58:40.033Z,3344.00
2019-04-13T11:59:40.022Z,3348.00
2019-04-13T12:00:39.978Z,3280.00
2019-04-13T12:01:39.963Z,3272.00
2019-04-13T12:02:39.945Z,3372.00
2019-04-13T12:03:40.365Z,3576.00
2019-04-13T12:04:39.947Z,3828.00
2019-04-13T12:05:39.940Z,4088.00
2019-04-13T12:06:39.921Z,4264.00
2019-04-13T12:07:39.912Z,4496.00
2019-04-13T12:08:39.898Z,4360.00
2019-04-13T12:09:49.765Z,4056.00
2019-04-13T12:10:39.919Z,3696.00
2019-04-13T12:11:39.845Z,3528.00
2019-04-13T12:12:39.815Z,3908.00
2019-04-13T12:13:39.802Z,3752.00
2019-04-13T12:14:40.291Z,3548.00
2019-04-13T12:15:40.592Z,3216.00
2019-04-13T12:16:40.266Z,2852.00
2019-04-13T12:17:39.698Z,2452.00
2019-04-13T12:18:39.674Z,2256.00
2019-04-13T12:19:39.657Z,2168.00
2019-04-13T12:20:39.654Z,2268.00
2019-04-13T12:21:39.627Z,2856.00
2019-04-13T12:22:39.605Z,3224.00
2019-04-13T12:23:39.598Z,3164.00
2019-04-13T12:24:39.562Z,2768.00
2019-04-13T12:25:40.416Z,2128.00
2019-04-13T12:26:39.537Z,1516.00
2019-04-13T12:27:39.514Z,1256.00
2019-04-13T12:28:39.619Z,1436.00